Time;durP1;ratioP1;P1;durP2;ratioP2;P2;SDS_P1;SDS_P2;PMS_P1;PMS_P2;Temp;Humidity;BMP_temperature;BMP_pressure;BME280_temperature;BME280_humidity;BME280_pressure;Samples;Min_cycle;Max_cycle;Signal;HPM_P1;HPM_P2
2022/12/19 00:00:11;;;;;;;43.72;17.65;;;;;;;;;;6248422;28;20052;-72
2022/12/19 00:03:31;;;;;;;;;;;;;;;;;;6250515;28;20037;-63
2022/12/19 00:06:32;;;;;;;46.63;15.98;;;;;;;;;;6244464;28;19967;-73
2022/12/19 00:09:33;;;;;;;61.65;19.30;;;;;;;;;;6256145;28;20049;-63
2022/12/19 00:12:33;;;;;;;46.33;17.20;;;;;;;;;;6254674;28;20079;-74
2022/12/19 00:15:35;;;;;;;52.35;18.60;;;;;;;;;;6253241;28;20049;-62
2022/12/19 00:18:38;;;;;;;38.33;15.93;;;;;;;;;;6255433;28;20441;-62
2022/12/19 00:21:39;;;;;;;45.47;16.55;;;;;;;;;;6248687;28;20037;-63
2022/12/19 00:24:39;;;;;;;47.97;16.42;;;;;;;;;;6247908;28;20517;-64
2022/12/19 00:27:40;;;;;;;50.53;16.17;;;;;;;;;;6250045;28;20044;-65
2022/12/19 00:30:40;;;;;;;50.13;16.65;;;;;;;;;;6249601;28;20040;-63
2022/12/19 00:33:42;;;;;;;48.28;17.50;;;;;;;;;;6245922;28;20053;-76
2022/12/19 00:36:42;;;;;;;49.85;16.90;;;;;;;;;;6248899;28;20091;-67
2022/12/19 00:39:43;;;;;;;43.08;15.63;;;;;;;;;;6252942;28;20067;-63
2022/12/19 00:42:43;;;;;;;49.08;16.17;;;;;;;;;;6246597;28;20079;-62
2022/12/19 00:45:44;;;;;;;41.70;15.10;;;;;;;;;;6247832;28;20037;-63
2022/12/19 00:48:44;;;;;;;47.53;15.88;;;;;;;;;;6248461;28;20080;-63
2022/12/19 00:51:45;;;;;;;45.90;16.00;;;;;;;;;;6245604;28;20045;-73
2022/12/19 00:54:46;;;;;;;44.25;16.75;;;;;;;;;;6247510;28;20543;-63
2022/12/19 00:57:46;;;;;;;47.80;17.33;;;;;;;;;;6250663;28;20064;-72
2022/12/19 01:00:48;;;;;;;48.28;16.73;;;;;;;;;;6248208;28;20507;-62
2022/12/19 01:03:51;;;;;;;58.42;19.45;;;;;;;;;;6250938;28;20045;-62
2022/12/19 01:06:52;;;;;;;59.13;19.30;;;;;;;;;;6246574;28;20047;-63
2022/12/19 01:09:53;;;;;;;60.97;19.25;;;;;;;;;;6254101;28;20045;-63
2022/12/19 01:12:53;;;;;;;54.05;19.25;;;;;;;;;;6248157;28;20042;-63
2022/12/19 01:15:54;;;;;;;44.88;17.92;;;;;;;;;;6248177;28;20423;-67
2022/12/19 01:18:55;;;;;;;61.30;19.70;;;;;;;;;;6245749;28;20057;-63
2022/12/19 01:21:56;;;;;;;57.97;20.58;;;;;;;;;;6252800;28;20072;-76
2022/12/19 01:24:56;;;;;;;57.90;20.33;;;;;;;;;;6260263;28;20136;-65
2022/12/19 01:27:57;;;;;;;59.08;19.38;;;;;;;;;;6250724;28;21363;-73
2022/12/19 01:30:58;;;;;;;51.97;19.38;;;;;;;;;;6247904;28;20091;-63
2022/12/19 01:33:59;;;;;;;55.88;19.25;;;;;;;;;;6246161;28;20663;-65
2022/12/19 01:37:00;;;;;;;55.60;18.40;;;;;;;;;;6259508;28;20033;-63
2022/12/19 01:40:01;;;;;;;49.97;17.77;;;;;;;;;;6247839;28;20050;-63
2022/12/19 01:43:05;;;;;;;52.67;19.15;;;;;;;;;;6246095;28;20140;-72
2022/12/19 01:46:13;;;;;;;51.92;18.13;;;;;;;;;;6244214;28;20053;-72
2022/12/19 01:49:35;;;;;;;50.90;17.42;;;;;;;;;;6244017;28;20045;-63
2022/12/19 01:52:35;;;;;;;54.78;17.75;;;;;;;;;;6257182;28;20052;-62
2022/12/19 01:55:39;;;;;;;51.05;16.92;;;;;;;;;;6266106;28;20396;-72
2022/12/19 01:58:45;;;;;;;48.88;16.85;;;;;;;;;;6259251;28;20499;-63
2022/12/19 02:01:46;;;;;;;52.08;18.83;;;;;;;;;;6257322;28;20122;-63
2022/12/19 02:04:47;;;;;;;51.40;19.27;;;;;;;;;;6264416;28;20044;-62
2022/12/19 02:07:50;;;;;;;54.60;17.98;;;;;;;;;;6255821;28;20859;-63
2022/12/19 02:10:50;;;;;;;;;;;;;;;;;;6246424;28;20080;-62
2022/12/19 02:13:51;;;;;;;51.47;18.20;;;;;;;;;;6267073;28;19979;-75
2022/12/19 02:16:55;;;;;;;50.38;18.35;;;;;;;;;;6247541;28;20099;-62
2022/12/19 02:20:15;;;;;;;55.30;18.15;;;;;;;;;;6246355;28;20045;-75
2022/12/19 02:23:53;;;;;;;49.58;17.10;;;;;;;;;;6246626;28;20052;-63
2022/12/19 02:27:17;;;;;;;46.63;16.75;;;;;;;;;;6245119;28;20531;-62
2022/12/19 02:30:41;;;;;;;46.53;16.83;;;;;;;;;;6244642;28;20098;-71
2022/12/19 02:33:55;;;;;;;62.63;18.80;;;;;;;;;;6262849;28;20048;-62
2022/12/19 02:37:10;;;;;;;40.42;14.93;;;;;;;;;;6245227;28;20511;-63
2022/12/19 02:40:26;;;;;;;47.60;17.45;;;;;;;;;;6245526;28;20507;-69
2022/12/19 02:43:29;;;;;;;55.58;18.90;;;;;;;;;;6247267;28;20045;-64
2022/12/19 02:46:31;;;;;;;54.03;18.17;;;;;;;;;;6245664;28;20041;-63
2022/12/19 02:49:34;;;;;;;60.08;18.13;;;;;;;;;;6251874;28;22437;-63
2022/12/19 02:52:35;;;;;;;54.60;18.55;;;;;;;;;;6249699;28;20055;-63
2022/12/19 02:55:46;;;;;;;55.40;20.23;;;;;;;;;;6261336;28;20048;-63
2022/12/19 02:59:12;;;;;;;58.28;21.60;;;;;;;;;;6263757;28;20053;-72
2022/12/19 03:02:33;;;;;;;60.00;22.80;;;;;;;;;;6249628;28;20072;-62
2022/12/19 03:05:39;;;;;;;57.10;21.52;;;;;;;;;;6242764;28;20041;-67
2022/12/19 03:08:59;;;;;;;48.60;18.65;;;;;;;;;;6259968;28;20920;-63
2022/12/19 03:12:05;;;;;;;53.63;21.05;;;;;;;;;;6266505;28;20057;-63
2022/12/19 03:15:10;;;;;;;63.10;21.70;;;;;;;;;;6249850;28;20119;-63
2022/12/19 03:18:11;;;;;;;53.47;19.73;;;;;;;;;;6249886;28;20141;-63
2022/12/19 03:21:22;;;;;;;51.28;19.02;;;;;;;;;;6251248;28;20403;-63
2022/12/19 03:24:23;;;;;;;52.47;17.67;;;;;;;;;;6249391;28;20042;-68
2022/12/19 03:27:28;;;;;;;50.92;17.17;;;;;;;;;;6250099;28;20399;-63
2022/12/19 03:30:32;;;;;;;55.80;18.60;;;;;;;;;;6264214;28;20139;-62
2022/12/19 03:33:33;;;;;;;47.08;19.33;;;;;;;;;;6249411;28;20045;-63
2022/12/19 03:36:40;;;;;;;47.58;19.58;;;;;;;;;;6260646;28;20475;-63
2022/12/19 03:39:44;;;;;;;56.65;19.83;;;;;;;;;;6262278;28;21742;-64
2022/12/19 03:46:21;;;;;;;62.35;22.65;;;;;;;;;;6264466;28;20048;-63
2022/12/19 03:49:22;;;;;;;56.22;21.05;;;;;;;;;;6261761;28;20049;-63
2022/12/19 03:52:44;;;;;;;56.95;21.38;;;;;;;;;;6247355;28;20045;-62
2022/12/19 03:56:02;;;;;;;65.07;22.90;;;;;;;;;;6248063;28;20603;-64
2022/12/19 03:59:14;;;;;;;49.03;19.17;;;;;;;;;;6246733;28;20037;-63
2022/12/19 04:02:16;;;;;;;;;;;;;;;;;;6249288;28;20096;-69
2022/12/19 04:05:20;;;;;;;49.53;17.60;;;;;;;;;;6256555;28;19925;-68
2022/12/19 04:08:22;;;;;;;49.33;19.30;;;;;;;;;;6266451;28;20053;-62
2022/12/19 04:11:26;;;;;;;59.50;22.38;;;;;;;;;;6266092;28;20046;-63
2022/12/19 04:14:30;;;;;;;51.67;21.10;;;;;;;;;;6246819;28;20048;-62
2022/12/19 04:17:39;;;;;;;65.90;23.35;;;;;;;;;;6250862;28;20041;-67
2022/12/19 04:20:46;;;;;;;65.03;23.08;;;;;;;;;;6248958;28;20049;-63
2022/12/19 04:23:53;;;;;;;66.82;23.73;;;;;;;;;;6249126;28;20064;-70
2022/12/19 04:26:56;;;;;;;61.63;23.13;;;;;;;;;;6250479;28;20048;-62
2022/12/19 04:29:59;;;;;;;66.00;24.48;;;;;;;;;;6248771;28;20527;-63
2022/12/19 04:33:00;;;;;;;63.08;22.95;;;;;;;;;;6248428;28;20596;-63
2022/12/19 04:36:01;;;;;;;56.53;22.58;;;;;;;;;;6249604;28;20045;-62
2022/12/19 04:39:02;;;;;;;58.95;23.15;;;;;;;;;;6249171;28;20772;-63
2022/12/19 04:42:03;;;;;;;62.75;22.65;;;;;;;;;;6249834;28;20041;-62
2022/12/19 04:45:04;;;;;;;77.22;26.70;;;;;;;;;;6248237;28;20126;-63
2022/12/19 04:48:05;;;;;;;68.97;25.50;;;;;;;;;;6252475;28;20055;-62
2022/12/19 04:51:06;;;;;;;63.53;22.40;;;;;;;;;;6253108;28;20301;-62
2022/12/19 04:54:08;;;;;;;65.43;23.55;;;;;;;;;;6254171;28;20045;-72
2022/12/19 04:57:08;;;;;;;;;;;;;;;;;;6247648;28;20051;-62
2022/12/19 05:00:10;;;;;;;52.03;22.52;;;;;;;;;;6244996;28;20307;-63
2022/12/19 05:03:10;;;;;;;60.83;25.23;;;;;;;;;;6246985;28;20448;-62
2022/12/19 05:06:12;;;;;;;62.63;23.02;;;;;;;;;;6244266;28;20056;-63
2022/12/19 05:09:13;;;;;;;;;;;;;;;;;;6260349;28;20053;-63
2022/12/19 05:12:14;;;;;;;56.63;22.33;;;;;;;;;;6260965;28;20402;-63
2022/12/19 05:15:15;;;;;;;69.40;24.45;;;;;;;;;;6246270;28;20206;-73
2022/12/19 05:18:15;;;;;;;67.20;24.23;;;;;;;;;;6248285;28;20045;-63
2022/12/19 05:21:16;;;;;;;66.20;24.98;;;;;;;;;;6242700;28;20089;-67
2022/12/19 05:24:16;;;;;;;66.32;25.13;;;;;;;;;;6250122;28;20052;-63
2022/12/19 05:27:17;;;;;;;65.13;24.15;;;;;;;;;;6254053;28;20522;-63
2022/12/19 05:30:17;;;;;;;70.75;24.42;;;;;;;;;;6243197;28;20049;-63
2022/12/19 05:33:18;;;;;;;72.13;25.50;;;;;;;;;;6244891;28;20041;-67
2022/12/19 05:36:19;;;;;;;69.03;24.92;;;;;;;;;;6247831;28;20052;-62
2022/12/19 05:39:19;;;;;;;59.03;23.55;;;;;;;;;;6260670;28;20487;-65
2022/12/19 05:42:20;;;;;;;57.03;23.10;;;;;;;;;;6261285;28;20744;-62
2022/12/19 05:45:21;;;;;;;64.72;24.20;;;;;;;;;;6245840;28;20499;-66
2022/12/19 05:48:21;;;;;;;64.45;24.17;;;;;;;;;;6248075;28;20049;-63
2022/12/19 05:51:22;;;;;;;61.95;23.85;;;;;;;;;;6246744;28;20566;-62
2022/12/19 05:54:22;;;;;;;58.55;23.75;;;;;;;;;;6252008;28;20048;-66
2022/12/19 05:57:23;;;;;;;63.60;24.02;;;;;;;;;;6264823;28;20075;-63
2022/12/19 06:00:24;;;;;;;56.08;22.33;;;;;;;;;;6257049;28;20055;-62
2022/12/19 06:03:25;;;;;;;61.30;25.03;;;;;;;;;;6246847;28;20139;-62
2022/12/19 06:06:25;;;;;;;72.53;27.23;;;;;;;;;;6251498;28;20041;-63
2022/12/19 06:09:26;;;;;;;74.93;25.70;;;;;;;;;;6262274;28;20045;-66
2022/12/19 06:12:27;;;;;;;61.33;25.02;;;;;;;;;;6264892;28;20075;-63
2022/12/19 06:15:27;;;;;;;69.88;27.25;;;;;;;;;;6251278;28;20504;-65
2022/12/19 06:18:28;;;;;;;69.70;26.70;;;;;;;;;;6246126;28;20049;-62
2022/12/19 06:21:29;;;;;;;71.10;23.57;;;;;;;;;;6253198;28;20053;-62
2022/12/19 06:24:30;;;;;;;54.03;22.17;;;;;;;;;;6257302;28;20102;-63
2022/12/19 06:27:30;;;;;;;65.85;24.20;;;;;;;;;;6260652;28;20479;-69
2022/12/19 06:30:31;;;;;;;66.60;24.58;;;;;;;;;;6251729;28;20077;-64
2022/12/19 06:33:32;;;;;;;63.47;22.77;;;;;;;;;;6272054;28;20510;-64
2022/12/19 06:36:33;;;;;;;78.78;26.00;;;;;;;;;;6249944;28;20053;-64
2022/12/19 06:39:34;;;;;;;67.88;25.27;;;;;;;;;;6261144;28;20135;-63
2022/12/19 06:42:34;;;;;;;70.45;27.02;;;;;;;;;;6259395;28;20041;-63
2022/12/19 06:45:35;;;;;;;66.55;23.88;;;;;;;;;;6244960;28;20045;-63
2022/12/19 06:48:35;;;;;;;77.32;25.52;;;;;;;;;;6253018;28;20041;-63
2022/12/19 06:51:36;;;;;;;75.47;24.60;;;;;;;;;;6246784;28;20069;-64
2022/12/19 06:54:37;;;;;;;64.72;25.80;;;;;;;;;;6243140;28;20507;-64
2022/12/19 06:57:44;;;;;;;70.50;24.60;;;;;;;;;;6248457;28;20049;-64
2022/12/19 07:00:45;;;;;;;82.70;28.20;;;;;;;;;;6246505;28;20045;-65
2022/12/19 07:03:47;;;;;;;75.78;28.13;;;;;;;;;;6261434;28;20052;-64
2022/12/19 07:06:47;;;;;;;79.15;28.20;;;;;;;;;;6242642;28;20049;-63
2022/12/19 07:09:48;;;;;;;83.38;27.70;;;;;;;;;;6243793;28;20049;-64
2022/12/19 07:12:49;;;;;;;125.40;40.88;;;;;;;;;;6245095;28;20049;-64
2022/12/19 07:15:51;;;;;;;110.70;35.10;;;;;;;;;;6244720;28;20076;-63
2022/12/19 07:18:52;;;;;;;83.30;32.05;;;;;;;;;;6243071;28;20446;-63
2022/12/19 07:21:54;;;;;;;100.07;34.53;;;;;;;;;;6266365;28;20049;-64
2022/12/19 07:24:55;;;;;;;107.18;39.70;;;;;;;;;;6248353;28;20052;-64
2022/12/19 07:27:56;;;;;;;123.32;42.47;;;;;;;;;;6244846;28;20472;-63
2022/12/19 07:30:56;;;;;;;145.38;49.65;;;;;;;;;;6245198;28;20060;-64
2022/12/19 07:33:57;;;;;;;124.85;45.10;;;;;;;;;;6246988;28;20140;-63
2022/12/19 07:36:58;;;;;;;120.13;43.05;;;;;;;;;;6261868;28;20045;-64
2022/12/19 07:39:58;;;;;;;132.25;46.60;;;;;;;;;;6261564;28;20040;-63
2022/12/19 07:43:04;;;;;;;122.47;44.53;;;;;;;;;;6249808;28;20423;-64
2022/12/19 07:46:05;;;;;;;111.60;43.45;;;;;;;;;;6245056;28;20144;-63
2022/12/19 07:49:05;;;;;;;114.32;42.28;;;;;;;;;;6248902;28;20083;-63
2022/12/19 07:52:07;;;;;;;112.25;42.20;;;;;;;;;;6252398;28;20044;-64
2022/12/19 07:55:08;;;;;;;134.00;44.17;;;;;;;;;;6247003;28;20052;-64
2022/12/19 07:58:09;;;;;;;112.07;39.28;;;;;;;;;;6248820;28;20041;-64
2022/12/19 08:01:11;;;;;;;105.43;40.25;;;;;;;;;;6249966;28;20044;-64
2022/12/19 08:04:12;;;;;;;120.95;42.03;;;;;;;;;;6247233;28;20420;-64
2022/12/19 08:07:12;;;;;;;149.98;51.42;;;;;;;;;;6248417;28;20491;-64
2022/12/19 08:10:14;;;;;;;167.07;57.92;;;;;;;;;;6247976;28;20138;-64
2022/12/19 08:13:15;;;;;;;134.48;48.92;;;;;;;;;;6248949;28;20430;-64
2022/12/19 08:16:15;;;;;;;133.07;46.67;;;;;;;;;;6248415;28;20191;-63
2022/12/19 08:19:16;;;;;;;124.95;45.72;;;;;;;;;;6252086;28;20037;-64
2022/12/19 08:22:17;;;;;;;141.23;50.03;;;;;;;;;;6266714;28;20103;-64
2022/12/19 08:25:17;;;;;;;131.80;49.05;;;;;;;;;;6248727;28;20055;-66
2022/12/19 08:28:18;;;;;;;167.55;57.22;;;;;;;;;;6251250;28;20060;-64
2022/12/19 08:31:19;;;;;;;147.93;51.55;;;;;;;;;;6249444;28;20049;-64
2022/12/19 08:34:20;;;;;;;127.15;48.35;;;;;;;;;;6250651;28;20041;-65
2022/12/19 08:37:21;;;;;;;132.52;44.17;;;;;;;;;;6252791;28;20495;-64
2022/12/19 08:40:22;;;;;;;108.68;40.55;;;;;;;;;;6254698;28;20067;-64
2022/12/19 08:43:22;;;;;;;104.03;36.33;;;;;;;;;;6246430;28;20045;-65
2022/12/19 08:46:26;;;;;;;140.55;45.83;;;;;;;;;;6246105;28;20107;-71
2022/12/19 08:49:26;;;;;;;140.80;40.95;;;;;;;;;;6246863;28;20049;-72
2022/12/19 08:52:27;;;;;;;136.68;43.35;;;;;;;;;;6247828;28;20064;-64
2022/12/19 08:55:27;;;;;;;129.55;43.58;;;;;;;;;;6243841;28;20040;-64
2022/12/19 08:58:29;;;;;;;122.53;41.23;;;;;;;;;;6267231;28;20130;-64
2022/12/19 09:01:30;;;;;;;146.15;48.05;;;;;;;;;;6261590;28;20056;-64
2022/12/19 09:04:30;;;;;;;181.73;57.50;;;;;;;;;;6267722;28;20071;-64
2022/12/19 09:07:31;;;;;;;161.55;53.95;;;;;;;;;;6251719;28;20046;-64
2022/12/19 09:10:36;;;;;;;148.63;52.17;;;;;;;;;;6248247;28;20056;-64
2022/12/19 09:13:38;;;;;;;139.20;50.10;;;;;;;;;;6245598;28;20049;-66
2022/12/19 09:16:38;;;;;;;146.32;49.08;;;;;;;;;;6246000;28;20131;-64
2022/12/19 09:19:39;;;;;;;144.77;47.88;;;;;;;;;;6245281;28;20045;-64
2022/12/19 09:22:40;;;;;;;138.38;45.60;;;;;;;;;;6259796;28;20053;-65
2022/12/19 09:25:40;;;;;;;128.85;44.35;;;;;;;;;;6257237;28;20476;-64
2022/12/19 09:28:41;;;;;;;139.88;48.90;;;;;;;;;;6267411;28;20061;-65
2022/12/19 09:31:42;;;;;;;137.85;48.35;;;;;;;;;;6251656;28;20099;-65
2022/12/19 09:34:42;;;;;;;158.05;51.30;;;;;;;;;;6259683;28;20049;-66
2022/12/19 09:37:43;;;;;;;217.05;64.40;;;;;;;;;;6247261;28;20049;-65
2022/12/19 09:41:14;;;;;;;187.05;54.45;;;;;;;;;;6248062;28;20498;-65
2022/12/19 09:44:33;;;;;;;120.53;41.22;;;;;;;;;;6250457;28;20094;-65
2022/12/19 09:47:43;;;;;;;121.22;42.10;;;;;;;;;;6264394;28;20543;-65
2022/12/19 09:50:49;;;;;;;101.95;38.22;;;;;;;;;;6250952;28;20045;-64
2022/12/19 09:54:12;;;;;;;94.47;37.03;;;;;;;;;;6268320;28;20182;-64
2022/12/19 09:57:25;;;;;;;92.82;35.35;;;;;;;;;;6247333;28;20052;-64
2022/12/19 10:00:27;;;;;;;;;;;;;;;;;;6246408;28;20092;-65
2022/12/19 10:03:38;;;;;;;123.68;44.00;;;;;;;;;;6248457;28;19940;-64
2022/12/19 10:06:38;;;;;;;145.05;49.92;;;;;;;;;;6259081;28;20047;-65
2022/12/19 10:09:39;;;;;;;127.32;45.30;;;;;;;;;;6259168;28;20052;-64
2022/12/19 10:13:15;;;;;;;133.75;44.80;;;;;;;;;;6256076;28;20518;-65
2022/12/19 10:16:29;;;;;;;115.63;39.22;;;;;;;;;;6265606;28;20424;-64
2022/12/19 10:19:42;;;;;;;121.68;40.88;;;;;;;;;;6252199;28;20055;-65
2022/12/19 10:22:51;;;;;;;;;;;;;;;;;;6246759;28;20086;-65
2022/12/19 10:25:55;;;;;;;104.30;35.17;;;;;;;;;;6248611;28;19948;-64
2022/12/19 10:29:18;;;;;;;89.97;34.85;;;;;;;;;;6248850;28;20381;-65
2022/12/19 10:32:50;;;;;;;106.00;35.40;;;;;;;;;;6244838;28;20045;-65
2022/12/19 10:35:58;;;;;;;93.90;32.50;;;;;;;;;;6245672;28;20041;-65
2022/12/19 10:39:08;;;;;;;101.45;34.92;;;;;;;;;;6243512;28;20053;-72
2022/12/19 10:42:18;;;;;;;104.05;35.42;;;;;;;;;;6246793;28;20049;-65
2022/12/19 10:45:21;;;;;;;98.10;38.33;;;;;;;;;;6247381;28;20111;-65
2022/12/19 10:48:22;;;;;;;108.40;40.90;;;;;;;;;;6245047;28;20045;-65
2022/12/19 10:51:27;;;;;;;101.15;37.58;;;;;;;;;;6246930;28;20053;-70
2022/12/19 10:54:38;;;;;;;103.43;39.53;;;;;;;;;;6244886;28;20684;-64
2022/12/19 10:57:39;;;;;;;90.47;35.72;;;;;;;;;;6246672;28;20524;-64
2022/12/19 11:01:04;;;;;;;97.18;37.17;;;;;;;;;;6257418;28;20123;-64
2022/12/19 11:04:24;;;;;;;92.18;34.40;;;;;;;;;;6249436;28;20107;-65
2022/12/19 11:07:25;;;;;;;84.88;31.88;;;;;;;;;;6246222;28;20036;-65
2022/12/19 11:10:34;;;;;;;79.97;31.08;;;;;;;;;;6249876;28;20071;-65
2022/12/19 11:13:35;;;;;;;82.28;34.88;;;;;;;;;;6250250;28;20040;-64
2022/12/19 11:16:38;;;;;;;92.47;34.15;;;;;;;;;;6250323;28;20380;-64
2022/12/19 11:19:39;;;;;;;93.13;37.05;;;;;;;;;;6246623;28;20045;-64
2022/12/19 11:22:51;;;;;;;99.47;35.33;;;;;;;;;;6248862;28;20534;-64
2022/12/19 11:25:54;;;;;;;;;;;;;;;;;;6247369;28;20119;-64
2022/12/19 11:28:59;;;;;;;103.18;36.40;;;;;;;;;;6248166;28;19929;-64
2022/12/19 11:32:01;;;;;;;91.60;34.28;;;;;;;;;;6268073;28;20044;-64
2022/12/19 11:35:21;;;;;;;97.87;37.13;;;;;;;;;;6252042;28;20511;-64
2022/12/19 11:38:36;;;;;;;98.45;37.03;;;;;;;;;;6251694;28;20314;-64
2022/12/19 11:41:44;;;;;;;95.95;35.70;;;;;;;;;;6249624;28;20052;-64
2022/12/19 11:44:56;;;;;;;88.15;34.50;;;;;;;;;;6248955;28;20045;-64
2022/12/19 11:48:20;;;;;;;97.63;35.78;;;;;;;;;;6251422;28;20132;-65
2022/12/19 11:51:39;;;;;;;94.68;35.55;;;;;;;;;;6246791;28;20091;-64
2022/12/19 11:55:06;;;;;;;109.07;40.03;;;;;;;;;;6250824;28;20053;-64
2022/12/19 11:58:09;;;;;;;216.50;79.50;;;;;;;;;;6250817;28;20060;-64
2022/12/19 12:01:35;;;;;;;173.02;67.20;;;;;;;;;;6247588;28;20052;-64
2022/12/19 12:04:53;;;;;;;97.45;35.80;;;;;;;;;;6246019;28;20045;-64
2022/12/19 12:08:32;;;;;;;89.70;32.30;;;;;;;;;;6262349;28;20052;-64
2022/12/19 12:11:49;;;;;;;88.38;34.42;;;;;;;;;;6256184;28;20119;-65
2022/12/19 12:15:02;;;;;;;93.45;35.30;;;;;;;;;;6250846;28;20057;-71
2022/12/19 12:18:02;;;;;;;;;;;;;;;;;;6266147;28;20090;-64
2022/12/19 12:21:06;;;;;;;174.63;75.50;;;;;;;;;;6254043;28;19921;-65
2022/12/19 12:24:10;;;;;;;147.02;56.03;;;;;;;;;;6250578;28;20507;-65
2022/12/19 12:27:20;;;;;;;145.30;47.97;;;;;;;;;;6250394;28;20495;-64
2022/12/19 12:30:22;;;;;;;118.25;43.30;;;;;;;;;;6248351;28;20067;-65
2022/12/19 12:33:35;;;;;;;122.40;43.97;;;;;;;;;;6261574;28;20073;-64
2022/12/19 12:36:49;;;;;;;112.90;44.92;;;;;;;;;;6257558;28;20045;-64
2022/12/19 12:40:13;;;;;;;103.50;39.95;;;;;;;;;;6249696;28;20060;-65
2022/12/19 12:43:51;;;;;;;101.75;37.30;;;;;;;;;;6255044;28;20045;-65
2022/12/19 12:47:01;;;;;;;94.18;36.00;;;;;;;;;;6260479;28;20048;-64
2022/12/19 12:50:05;;;;;;;96.00;37.70;;;;;;;;;;6247181;28;20049;-65
2022/12/19 12:53:09;;;;;;;106.78;37.70;;;;;;;;;;6247597;28;20053;-64
2022/12/19 12:56:14;;;;;;;106.30;39.92;;;;;;;;;;6255489;28;20559;-65
2022/12/19 12:59:24;;;;;;;90.57;38.10;;;;;;;;;;6264270;28;20076;-64
2022/12/19 13:02:25;;;;;;;90.43;34.95;;;;;;;;;;6246457;28;20041;-65
2022/12/19 13:06:02;;;;;;;95.18;34.63;;;;;;;;;;6247783;28;20270;-64
2022/12/19 13:09:08;;;;;;;88.07;35.80;;;;;;;;;;6247131;28;20059;-64
2022/12/19 13:15:43;;;;;;;96.88;37.03;;;;;;;;;;6249039;28;20131;-65
2022/12/19 13:19:15;;;;;;;94.00;35.67;;;;;;;;;;6246343;28;20063;-64
2022/12/19 13:22:27;;;;;;;88.82;35.80;;;;;;;;;;6245494;28;20409;-64
2022/12/19 13:25:34;;;;;;;95.25;38.92;;;;;;;;;;6244350;28;20080;-65
2022/12/19 13:28:38;;;;;;;90.20;33.25;;;;;;;;;;6245529;28;20090;-65
2022/12/19 13:31:38;;;;;;;100.13;37.45;;;;;;;;;;6241323;28;20049;-65
2022/12/19 13:34:39;;;;;;;92.45;37.90;;;;;;;;;;6240844;28;20145;-64
2022/12/19 13:37:45;;;;;;;94.43;39.67;;;;;;;;;;6248253;28;20591;-64
2022/12/19 13:40:56;;;;;;;118.70;46.30;;;;;;;;;;6247008;28;20436;-65
2022/12/19 13:43:58;;;;;;;194.48;62.53;;;;;;;;;;6247266;28;20056;-65
2022/12/19 13:46:59;;;;;;;294.55;82.25;;;;;;;;;;6248911;28;20048;-64
2022/12/19 13:50:16;;;;;;;230.90;67.55;;;;;;;;;;6243595;28;20503;-64
2022/12/19 13:53:20;;;;;;;131.00;42.72;;;;;;;;;;6248992;28;20506;-64
2022/12/19 13:56:21;;;;;;;161.57;52.25;;;;;;;;;;6254801;28;20045;-64
2022/12/19 13:59:26;;;;;;;186.10;62.15;;;;;;;;;;6262606;28;20048;-76
2022/12/19 14:02:37;;;;;;;116.53;44.60;;;;;;;;;;6262348;28;20056;-65
2022/12/19 14:05:39;;;;;;;116.13;42.05;;;;;;;;;;6254684;28;20049;-65
2022/12/19 14:08:39;;;;;;;101.35;38.13;;;;;;;;;;6248489;28;20280;-66
2022/12/19 14:11:42;;;;;;;100.93;36.45;;;;;;;;;;6245258;28;20053;-65
2022/12/19 14:18:32;;;;;;;118.50;41.72;;;;;;;;;;6136528;29;20840;-64
2022/12/19 14:21:33;;;;;;;123.90;42.22;;;;;;;;;;6135938;29;20043;-73
2022/12/19 14:24:33;;;;;;;130.98;44.25;;;;;;;;;;6241754;28;20605;-65
2022/12/19 14:27:41;;;;;;;121.15;41.95;;;;;;;;;;6247441;28;20056;-65
2022/12/19 14:30:46;;;;;;;143.23;48.53;;;;;;;;;;6248490;28;20060;-64
2022/12/19 14:33:49;;;;;;;120.00;45.08;;;;;;;;;;6244081;28;20476;-65
2022/12/19 14:36:55;;;;;;;115.10;41.05;;;;;;;;;;6248586;28;20049;-64
2022/12/19 14:40:04;;;;;;;101.95;37.28;;;;;;;;;;6245674;28;21276;-65
2022/12/19 14:43:38;;;;;;;95.78;33.78;;;;;;;;;;6253765;28;20910;-69
2022/12/19 14:46:39;;;;;;;105.45;36.78;;;;;;;;;;6254884;28;20053;-64
2022/12/19 14:49:39;;;;;;;106.28;39.17;;;;;;;;;;6248230;28;20061;-66
2022/12/19 14:52:47;;;;;;;117.03;42.08;;;;;;;;;;6254936;28;20056;-65
2022/12/19 14:56:04;;;;;;;113.00;43.03;;;;;;;;;;6256335;28;20052;-64
2022/12/19 14:59:12;;;;;;;133.45;50.95;;;;;;;;;;6251721;28;20160;-64
2022/12/19 15:02:21;;;;;;;136.80;49.63;;;;;;;;;;6250562;28;20045;-64
2022/12/19 15:05:22;;;;;;;110.68;43.20;;;;;;;;;;6248800;28;20118;-64
2022/12/19 15:08:32;;;;;;;105.43;44.33;;;;;;;;;;6248837;28;20053;-69
2022/12/19 15:15:19;;;;;;;109.65;42.50;;;;;;;;;;6251236;28;20079;-63
2022/12/19 15:18:22;;;;;;;124.95;47.72;;;;;;;;;;6250005;28;20060;-63
2022/12/19 15:21:23;;;;;;;124.38;50.30;;;;;;;;;;6252418;28;20053;-64
2022/12/19 15:24:23;;;;;;;126.25;47.83;;;;;;;;;;6255589;28;20045;-63
2022/12/19 15:27:24;;;;;;;128.05;47.08;;;;;;;;;;6250220;28;20064;-63
2022/12/19 15:30:28;;;;;;;144.68;56.85;;;;;;;;;;6249020;28;20060;-64
2022/12/19 15:33:29;;;;;;;136.07;56.80;;;;;;;;;;6249574;28;20055;-64
2022/12/19 15:36:29;;;;;;;123.75;48.60;;;;;;;;;;6251376;28;20614;-64
2022/12/19 15:39:30;;;;;;;131.63;50.20;;;;;;;;;;6247980;28;20049;-62
2022/12/19 15:42:31;;;;;;;133.63;52.97;;;;;;;;;;6248924;28;20060;-63
2022/12/19 15:45:32;;;;;;;123.03;49.20;;;;;;;;;;6252014;28;20045;-62
2022/12/19 15:48:35;;;;;;;126.95;50.58;;;;;;;;;;6248156;28;20476;-62
2022/12/19 15:51:36;;;;;;;149.65;57.15;;;;;;;;;;6249027;28;20057;-62
2022/12/19 15:54:37;;;;;;;132.60;50.35;;;;;;;;;;6249067;28;20670;-62
2022/12/19 15:57:41;;;;;;;137.90;50.38;;;;;;;;;;6247588;28;20072;-63
2022/12/19 16:00:50;;;;;;;139.25;49.70;;;;;;;;;;6249389;28;20052;-68
2022/12/19 16:03:51;;;;;;;129.13;49.53;;;;;;;;;;6257687;28;20059;-69
2022/12/19 16:06:51;;;;;;;128.45;50.88;;;;;;;;;;6259823;28;20052;-62
2022/12/19 16:09:53;;;;;;;141.60;52.22;;;;;;;;;;6255155;28;20077;-62
2022/12/19 16:12:56;;;;;;;154.82;59.88;;;;;;;;;;6257600;28;20055;-63
2022/12/19 16:15:57;;;;;;;164.95;60.83;;;;;;;;;;6258897;28;20126;-62
2022/12/19 16:18:58;;;;;;;155.82;58.40;;;;;;;;;;6257103;28;20049;-63
2022/12/19 16:21:59;;;;;;;132.98;51.53;;;;;;;;;;6256621;28;20076;-63
2022/12/19 16:25:00;;;;;;;146.75;54.47;;;;;;;;;;6257669;28;20048;-61
2022/12/19 16:28:02;;;;;;;145.25;55.08;;;;;;;;;;6257119;28;20389;-64
2022/12/19 16:31:13;;;;;;;164.30;61.67;;;;;;;;;;6258334;28;20053;-64
2022/12/19 16:34:18;;;;;;;164.90;58.72;;;;;;;;;;6256691;28;20107;-64
2022/12/19 16:37:18;;;;;;;141.57;54.83;;;;;;;;;;6256888;28;20040;-65
2022/12/19 16:40:22;;;;;;;151.63;54.72;;;;;;;;;;6256466;28;20037;-63
2022/12/19 16:43:31;;;;;;;143.15;53.65;;;;;;;;;;6258759;28;20049;-62
2022/12/19 16:46:33;;;;;;;151.25;51.95;;;;;;;;;;6257948;28;20048;-64
2022/12/19 16:49:33;;;;;;;156.73;53.78;;;;;;;;;;6256918;28;20809;-65
2022/12/19 16:52:34;;;;;;;153.45;58.75;;;;;;;;;;6258191;28;20128;-62
2022/12/19 16:55:34;;;;;;;158.77;58.85;;;;;;;;;;6257613;28;20072;-62
2022/12/19 16:58:35;;;;;;;163.10;58.80;;;;;;;;;;6256742;28;20052;-64
2022/12/19 17:01:36;;;;;;;164.18;62.22;;;;;;;;;;6258850;28;20454;-60
2022/12/19 17:04:36;;;;;;;185.40;67.78;;;;;;;;;;6257014;28;20571;-62
2022/12/19 17:07:37;;;;;;;201.10;70.03;;;;;;;;;;6255578;28;20060;-62
2022/12/19 17:10:42;;;;;;;190.32;65.55;;;;;;;;;;6257619;28;21399;-61
2022/12/19 17:13:44;;;;;;;180.70;71.68;;;;;;;;;;6256565;28;20087;-63
2022/12/19 17:16:45;;;;;;;198.32;64.65;;;;;;;;;;6257822;28;20452;-60
2022/12/19 17:19:46;;;;;;;171.13;58.58;;;;;;;;;;6256523;28;20056;-61
2022/12/19 17:22:47;;;;;;;157.93;58.83;;;;;;;;;;6257795;28;20086;-61
2022/12/19 17:25:48;;;;;;;181.52;61.00;;;;;;;;;;6254818;28;20495;-60
2022/12/19 17:28:49;;;;;;;153.40;55.53;;;;;;;;;;6254223;28;20055;-61
2022/12/19 17:31:49;;;;;;;121.38;45.50;;;;;;;;;;6257350;28;20045;-62
2022/12/19 17:34:51;;;;;;;155.88;57.00;;;;;;;;;;6256379;28;20049;-64
2022/12/19 17:37:54;;;;;;;146.45;54.47;;;;;;;;;;6256295;28;20087;-65
2022/12/19 17:40:58;;;;;;;148.32;56.35;;;;;;;;;;6257682;28;20496;-66
2022/12/19 17:43:58;;;;;;;170.60;65.40;;;;;;;;;;6256528;28;20060;-68
2022/12/19 17:46:59;;;;;;;202.75;77.88;;;;;;;;;;6258888;28;20059;-67
2022/12/19 17:49:59;;;;;;;177.90;61.70;;;;;;;;;;6254634;28;20065;-66
2022/12/19 17:53:00;;;;;;;141.63;52.28;;;;;;;;;;6256874;28;20053;-69
2022/12/19 17:56:01;;;;;;;142.18;51.10;;;;;;;;;;6257392;28;20091;-68
2022/12/19 17:59:01;;;;;;;150.30;55.63;;;;;;;;;;6255834;28;20048;-63
2022/12/19 18:02:02;;;;;;;113.40;39.88;;;;;;;;;;6256877;28;20423;-63
2022/12/19 18:05:03;;;;;;;145.25;52.78;;;;;;;;;;6257175;28;20065;-63